Airfield :
LOGIN :

Register | Disclaimer

   EN    FR    IT 

 










Legend :    VFR   Marginal VFR   IFR   Intensive IFR   Very Intensive IFR
Visi :
Ceiling :
>= 8 km
>= 3000ft
5 to 8 km
1000 to 3000 ft
1500m to 5 km
500 to 1000 ft
800 to 1500m
200 to 500 ft
< 800m
< 200 ft
Symbols :   Thunderstorms  Fog  Heavy snow  Heavy precipitations  Wind > 20 kt
SIGMETs :     Misc.  Thunderstorms  Icing  Turbulence  Mountain Waves  Volcanic Ashes







- Airport Elevation : 25 ft
- IATA code : QCY


EGXC - RAF Coningsby

CURRENT METAR :
  • 190050Z 08005KT 9999 FEW003 BKN006 OVC070 14/14 Q1010 RMK YLO1

EXPIRED METARs :
  • 190030Z 08006KT 8000 BR FEW002 BKN003 OVC070 14/14 Q1010 RMK YLO2
  • 182350Z 08004KT 6000 -RA BKN002 BKN040 14/14 Q1010 RMK AMB
  • 182250Z 09004KT 8000 BR SCT040 OVC070 14/14 Q1011 RMK BLU

TAF AMD TAF EGXC
Valid from the 19 at 00:00 until the 19 at 18:00 UTC


182325Z 1900/1918 10005KT 9999 BKN040
PROB40
TEMPO 1900/1910 7000 -RA BKN002
PROB30
TEMPO 1900/1910 3000 RA
TEMPO 1910/1913 BKN012
PROB40
TEMPO 1913/1918 SCT016
No reported NOTAMs for that airfield.
1 SIGMET reported for the London FIR (EGTT) :
 
Frequent thunderstorms
EGTT SIGMET 06 VALID 182300/190200 EGRR
EGTT LONDON FIR FRQ TS FCST WI N5114 W00010 - N5218 E00150 - N5217 E00240 - N5128 E00146 - N5102 E00136 - N5100 E00128 - N5040 E00128 - N5000 W00015 - N5000 W00033 - N5114 W00010 TOP FL330 MOV NE 25KT NC=



MET'MAP, your aeronautical weather chart ! - Copyright ORBIFLY December 2007 - Disclaimer

ORBIFLY MET'MAP TEAM :

Programming & Development : Alexandra Zaïnal
Concept & Development : Baudouin d'Aumeries
Co-Development & Prog : Marc-Olivier Méhu
Technical & hardware support : Manuel Goepfert

Contact : metmap@orbifly.com




SOURCES & CREDITS :

   NOAA